createdAt,value
2024-04-24T00:00:05.827Z,24.1400
2024-04-24T00:00:16.862Z,24.1400
2024-04-24T00:00:27.918Z,24.1300
2024-04-24T00:00:38.936Z,24.1300
2024-04-24T00:00:49.992Z,24.1400
2024-04-24T00:01:01.072Z,24.1400
2024-04-24T00:01:12.116Z,24.1400
2024-04-24T00:01:23.151Z,24.1500
2024-04-24T00:01:34.218Z,24.1400
2024-04-24T00:01:45.284Z,24.1500
2024-04-24T00:01:56.360Z,24.1500
2024-04-24T00:02:07.431Z,24.1500
2024-04-24T00:02:18.542Z,24.1500
2024-04-24T00:02:29.665Z,24.1500
2024-04-24T00:02:40.742Z,24.1500
2024-04-24T00:02:51.874Z,24.1400
2024-04-24T00:03:04.411Z,24.1400
2024-04-24T00:03:17.347Z,24.1400
2024-04-24T00:03:28.431Z,24.1200
2024-04-24T00:03:39.580Z,24.1200
2024-04-24T00:03:50.822Z,24.1300
2024-04-24T00:04:01.927Z,24.1300
2024-04-24T00:04:13.050Z,24.1300
2024-04-24T00:04:24.078Z,24.1300
2024-04-24T00:04:35.128Z,24.1300
2024-04-24T00:04:46.180Z,24.1300
2024-04-24T00:04:57.237Z,24.1300
2024-04-24T00:05:08.309Z,24.1300
2024-04-24T00:05:19.506Z,24.1300
2024-04-24T00:05:30.590Z,24.1300
2024-04-24T00:05:41.610Z,24.1300
2024-04-24T00:05:52.645Z,24.1300
2024-04-24T00:06:03.686Z,24.1300
2024-04-24T00:06:14.765Z,24.1300
2024-04-24T00:06:25.788Z,24.1300
2024-04-24T00:06:36.827Z,24.1200
2024-04-24T00:06:47.866Z,24.1200
2024-04-24T00:06:58.882Z,24.1200
2024-04-24T00:07:09.938Z,24.1200
2024-04-24T00:07:21.002Z,24.1200
2024-04-24T00:07:32.035Z,24.1200
2024-04-24T00:07:43.093Z,24.1200
2024-04-24T00:07:54.183Z,24.1200
2024-04-24T00:08:05.276Z,24.1300
2024-04-24T00:08:16.448Z,24.1300
2024-04-24T00:08:27.577Z,24.1200
2024-04-24T00:08:38.664Z,24.1200
2024-04-24T00:08:49.709Z,24.1200
2024-04-24T00:09:00.742Z,24.1200
2024-04-24T00:09:11.866Z,24.1200
2024-04-24T00:09:22.921Z,24.1200
2024-04-24T00:09:33.974Z,24.1200
2024-04-24T00:09:45.018Z,24.1200
2024-04-24T00:09:56.069Z,24.1200
2024-04-24T00:10:07.088Z,24.1200
2024-04-24T00:10:18.131Z,24.1200
2024-04-24T00:10:29.164Z,24.1200
2024-04-24T00:10:40.267Z,24.1200
2024-04-24T00:10:51.432Z,24.1200
2024-04-24T00:11:02.585Z,24.1200
2024-04-24T00:11:13.794Z,24.1200
2024-04-24T00:11:24.934Z,24.1100
2024-04-24T00:11:36.129Z,24.1100
2024-04-24T00:11:47.388Z,24.1100
2024-04-24T00:11:58.810Z,24.1100
2024-04-24T00:12:09.961Z,24.1100
2024-04-24T00:12:21.013Z,24.1100
2024-04-24T00:12:32.040Z,24.1100
2024-04-24T00:12:43.117Z,24.1200
2024-04-24T00:12:54.136Z,24.1200
2024-04-24T00:13:05.164Z,24.1300
2024-04-24T00:13:16.214Z,24.1300
2024-04-24T00:13:27.271Z,24.1300
2024-04-24T00:13:38.318Z,24.1400
2024-04-24T00:13:49.394Z,24.1400
2024-04-24T00:14:00.448Z,24.1400
2024-04-24T00:14:11.509Z,24.1400
2024-04-24T00:14:22.596Z,24.1400
2024-04-24T00:14:33.714Z,24.1400
2024-04-24T00:14:44.773Z,24.1400
2024-04-24T00:14:55.784Z,24.1400
2024-04-24T00:15:06.837Z,24.1400
2024-04-24T00:15:17.868Z,24.1400
2024-04-24T00:15:28.912Z,24.1300
2024-04-24T00:15:39.949Z,24.1300
2024-04-24T00:15:50.986Z,24.1300
2024-04-24T00:16:02.012Z,24.1300
2024-04-24T00:16:13.043Z,24.1300
2024-04-24T00:16:24.113Z,24.1300
2024-04-24T00:16:35.141Z,24.1300
2024-04-24T00:16:46.241Z,24.1300
2024-04-24T00:16:57.302Z,24.1400
2024-04-24T00:17:08.435Z,24.1400
2024-04-24T00:17:19.626Z,24.1400
2024-04-24T00:17:30.877Z,24.1400
2024-04-24T00:17:42.193Z,24.1300
2024-04-24T00:17:53.308Z,24.1300
2024-04-24T00:18:04.522Z,24.1300
2024-04-24T00:18:15.644Z,24.1300
2024-04-24T00:18:26.745Z,24.1300
2024-04-24T00:18:37.938Z,24.1300
2024-04-24T00:18:49.162Z,24.1200
2024-04-24T00:19:00.274Z,24.1300
2024-04-24T00:19:11.305Z,24.1300
2024-04-24T00:19:22.359Z,24.1300
2024-04-24T00:19:33.411Z,24.1300
2024-04-24T00:19:44.478Z,24.1300
2024-04-24T00:19:55.592Z,24.1300
2024-04-24T00:20:06.656Z,24.1200
2024-04-24T00:20:17.843Z,24.1200
2024-04-24T00:20:28.939Z,24.1200
2024-04-24T00:20:39.981Z,24.1200
2024-04-24T00:20:51.045Z,24.1200
2024-04-24T00:21:02.102Z,24.1100
2024-04-24T00:21:13.161Z,24.1100
2024-04-24T00:21:24.231Z,24.1100
2024-04-24T00:21:35.259Z,24.1100
2024-04-24T00:21:46.287Z,24.1100
2024-04-24T00:21:57.343Z,24.1100
2024-04-24T00:22:08.407Z,24.1100
2024-04-24T00:22:19.477Z,24.1100
2024-04-24T00:22:30.555Z,24.1100
2024-04-24T00:22:41.583Z,24.1200
2024-04-24T00:22:52.661Z,24.1200
2024-04-24T00:23:03.769Z,24.1200
2024-04-24T00:23:14.862Z,24.1200
2024-04-24T00:23:25.945Z,24.1200
2024-04-24T00:23:36.974Z,24.1200
2024-04-24T00:23:48.057Z,24.1200
2024-04-24T00:23:59.093Z,24.1200
2024-04-24T00:24:10.128Z,24.1200
2024-04-24T00:24:21.174Z,24.1300
2024-04-24T00:24:32.217Z,24.1300
2024-04-24T00:24:43.312Z,24.1300
2024-04-24T00:24:54.342Z,24.1300
2024-04-24T00:25:05.371Z,24.1300
2024-04-24T00:25:16.463Z,24.1300
2024-04-24T00:25:27.490Z,24.1300
2024-04-24T00:25:38.542Z,24.1400
2024-04-24T00:25:49.630Z,24.1400
2024-04-24T00:26:00.751Z,24.1400
2024-04-24T00:26:11.957Z,24.1400
2024-04-24T00:26:23.117Z,24.1400
2024-04-24T00:26:34.167Z,24.1400
2024-04-24T00:26:45.219Z,24.1400
2024-04-24T00:26:56.259Z,24.1500
2024-04-24T00:27:07.333Z,24.1500
2024-04-24T00:27:18.347Z,24.1500
2024-04-24T00:27:29.410Z,24.1600
2024-04-24T00:27:40.469Z,24.1600
2024-04-24T00:27:51.525Z,24.1600
2024-04-24T00:28:02.553Z,24.1600
2024-04-24T00:28:13.600Z,24.1600
2024-04-24T00:28:24.655Z,24.1600
2024-04-24T00:28:35.683Z,24.1500
2024-04-24T00:28:46.790Z,24.1500
2024-04-24T00:28:57.874Z,24.1500
2024-04-24T00:29:08.952Z,24.1500
2024-04-24T00:29:20.044Z,24.1400
2024-04-24T00:29:31.104Z,24.1500
2024-04-24T00:29:42.167Z,24.1500
2024-04-24T00:29:53.203Z,24.1500
2024-04-24T00:30:04.259Z,24.1400
2024-04-24T00:30:15.303Z,24.1400
2024-04-24T00:30:26.367Z,24.1300
2024-04-24T00:30:37.429Z,24.1400
2024-04-24T00:30:48.464Z,24.1300
2024-04-24T00:30:59.527Z,24.1300
2024-04-24T00:31:10.559Z,24.1300
2024-04-24T00:31:21.603Z,24.1300
2024-04-24T00:31:32.658Z,24.1300
2024-04-24T00:31:43.705Z,24.1300
2024-04-24T00:31:54.764Z,24.1300
2024-04-24T00:32:05.843Z,24.1400
2024-04-24T00:32:16.959Z,24.1400
2024-04-24T00:32:28.067Z,24.1400
2024-04-24T00:32:39.178Z,24.1400
2024-04-24T00:32:50.252Z,24.1400
2024-04-24T00:33:01.462Z,24.1400
2024-04-24T00:33:12.791Z,24.1400
2024-04-24T00:33:23.970Z,24.1300
2024-04-24T00:33:35.140Z,24.1300
2024-04-24T00:33:46.329Z,24.1300
2024-04-24T00:33:57.519Z,24.1400
2024-04-24T00:34:08.609Z,24.1400
2024-04-24T00:34:19.652Z,24.1400
2024-04-24T00:34:30.700Z,24.1400
2024-04-24T00:34:41.726Z,24.1400
2024-04-24T00:34:52.785Z,24.1500
2024-04-24T00:35:03.891Z,24.1500
2024-04-24T00:35:15.002Z,24.1500
2024-04-24T00:35:26.081Z,24.1500
2024-04-24T00:35:37.151Z,24.1500
2024-04-24T00:35:48.164Z,24.1500
2024-04-24T00:35:59.216Z,24.1500
2024-04-24T00:36:10.247Z,24.1500
2024-04-24T00:36:21.303Z,24.1500
2024-04-24T00:36:32.369Z,24.1500
2024-04-24T00:36:43.399Z,24.1500
2024-04-24T00:36:54.452Z,24.1500
2024-04-24T00:37:05.479Z,24.1500
2024-04-24T00:37:16.525Z,24.1500
2024-04-24T00:37:27.573Z,24.1400
2024-04-24T00:37:41.193Z,24.1400
2024-04-24T00:37:52.709Z,24.1300
2024-04-24T00:38:03.823Z,24.1100
2024-04-24T00:38:14.937Z,24.1200
2024-04-24T00:38:26.038Z,24.1200
2024-04-24T00:38:37.088Z,24.1200
2024-04-24T00:38:48.145Z,24.1200
2024-04-24T00:38:59.219Z,24.1300
2024-04-24T00:39:10.258Z,24.1300
2024-04-24T00:39:21.317Z,24.1300
2024-04-24T00:39:32.355Z,24.1300
2024-04-24T00:39:43.416Z,24.1300
2024-04-24T00:39:54.464Z,24.1300
2024-04-24T00:40:05.483Z,24.1300
2024-04-24T00:40:16.564Z,24.1300
2024-04-24T00:40:27.562Z,24.1300
2024-04-24T00:40:38.624Z,24.1300
2024-04-24T00:40:49.673Z,24.1300
2024-04-24T00:41:00.815Z,24.1200
2024-04-24T00:41:12.043Z,24.1200
2024-04-24T00:41:23.134Z,24.1100
2024-04-24T00:41:34.187Z,24.1100
2024-04-24T00:41:45.225Z,24.1200
2024-04-24T00:41:56.278Z,24.1200
2024-04-24T00:42:07.317Z,24.1200
2024-04-24T00:42:18.354Z,24.1200
2024-04-24T00:42:29.382Z,24.1200
2024-04-24T00:42:40.426Z,24.1200
2024-04-24T00:42:51.468Z,24.1200
2024-04-24T00:43:02.510Z,24.1100
2024-04-24T00:43:13.566Z,24.1100
2024-04-24T00:43:24.593Z,24.1100
2024-04-24T00:43:35.651Z,24.1100
2024-04-24T00:43:46.722Z,24.1100
2024-04-24T00:43:57.770Z,24.1100
2024-04-24T00:44:08.883Z,24.1100
2024-04-24T00:44:20.026Z,24.1100
2024-04-24T00:44:31.095Z,24.1200
2024-04-24T00:44:42.156Z,24.1100
2024-04-24T00:44:53.230Z,24.1200
2024-04-24T00:45:04.282Z,24.1200
2024-04-24T00:45:15.305Z,24.1100
2024-04-24T00:45:26.355Z,24.1100
2024-04-24T00:45:37.401Z,24.1100
2024-04-24T00:45:48.479Z,24.1100
2024-04-24T00:45:59.494Z,24.1200
2024-04-24T00:46:10.535Z,24.1200
2024-04-24T00:46:21.583Z,24.1200
2024-04-24T00:46:32.638Z,24.1200
2024-04-24T00:46:43.682Z,24.1200
2024-04-24T00:46:54.741Z,24.1200
2024-04-24T00:47:05.909Z,24.1100
2024-04-24T00:47:17.078Z,24.1100
2024-04-24T00:47:28.244Z,24.1000
2024-04-24T00:47:39.463Z,24.1000
2024-04-24T00:47:50.649Z,24.1100
2024-04-24T00:48:01.795Z,24.1100
2024-04-24T00:48:12.962Z,24.1100
2024-04-24T00:48:24.113Z,24.1100
2024-04-24T00:48:35.249Z,24.1200
2024-04-24T00:48:46.328Z,24.1100
2024-04-24T00:48:57.373Z,24.1100
2024-04-24T00:49:08.410Z,24.1100
2024-04-24T00:49:19.510Z,24.1100
2024-04-24T00:49:30.567Z,24.1200
2024-04-24T00:49:41.597Z,24.1200
2024-04-24T00:49:52.659Z,24.1200
2024-04-24T00:50:03.725Z,24.1300
2024-04-24T00:50:14.837Z,24.1300
2024-04-24T00:50:26.044Z,24.1300
2024-04-24T00:50:37.148Z,24.1200
2024-04-24T00:50:48.185Z,24.1200
2024-04-24T00:50:59.262Z,24.1200
2024-04-24T00:51:10.359Z,24.1100
2024-04-24T00:51:21.392Z,24.1100
2024-04-24T00:51:32.433Z,24.1100
2024-04-24T00:51:43.483Z,24.1100
2024-04-24T00:51:54.528Z,24.1100
2024-04-24T00:52:05.576Z,24.1100
2024-04-24T00:52:16.633Z,24.1000
2024-04-24T00:52:27.674Z,24.1100
2024-04-24T00:52:38.730Z,24.1100
2024-04-24T00:52:49.830Z,24.1100
2024-04-24T00:53:00.855Z,24.1100
2024-04-24T00:53:12.117Z,24.1100
2024-04-24T00:53:23.276Z,24.1100
2024-04-24T00:53:34.357Z,24.1200
2024-04-24T00:53:45.409Z,24.1200
2024-04-24T00:53:56.447Z,24.1200
2024-04-24T00:54:07.491Z,24.1200
2024-04-24T00:54:18.549Z,24.1200
2024-04-24T00:54:29.622Z,24.1200
2024-04-24T00:54:40.678Z,24.1200
2024-04-24T00:54:51.880Z,24.1200
2024-04-24T00:55:02.956Z,24.1200
2024-04-24T00:55:13.961Z,24.1300
2024-04-24T00:55:25.026Z,24.1300
2024-04-24T00:55:36.041Z,24.1300
2024-04-24T00:55:47.119Z,24.1300
2024-04-24T00:55:58.192Z,24.1200
2024-04-24T00:56:09.238Z,24.1200
2024-04-24T00:56:20.410Z,24.1200
2024-04-24T00:56:31.468Z,24.1200
2024-04-24T00:56:42.538Z,24.1200
2024-04-24T00:56:53.569Z,24.1100
2024-04-24T00:57:04.583Z,24.1100
2024-04-24T00:57:15.616Z,24.1200
2024-04-24T00:57:26.695Z,24.1200
2024-04-24T00:57:37.729Z,24.1200
2024-04-24T00:57:48.780Z,24.1200
2024-04-24T00:57:59.817Z,24.1200
2024-04-24T00:58:10.859Z,24.1200
2024-04-24T00:58:21.907Z,24.1200
2024-04-24T00:58:32.964Z,24.1200
2024-04-24T00:58:44.030Z,24.1200
2024-04-24T00:58:55.144Z,24.1200
2024-04-24T00:59:06.334Z,24.1200
2024-04-24T00:59:17.601Z,24.1100
2024-04-24T00:59:28.725Z,24.1100
2024-04-24T00:59:39.762Z,24.1000
2024-04-24T00:59:50.817Z,24.1000
2024-04-24T01:00:01.828Z,24.1000
2024-04-24T01:00:12.861Z,24.1000
2024-04-24T01:00:23.879Z,24.1000
2024-04-24T01:00:34.917Z,24.1000
2024-04-24T01:00:45.999Z,24.1000
2024-04-24T01:00:57.041Z,24.0900
2024-04-24T01:01:08.118Z,24.0900
2024-04-24T01:01:19.160Z,24.0900
2024-04-24T01:01:30.198Z,24.0900
2024-04-24T01:01:41.255Z,24.0900
2024-04-24T01:01:52.318Z,24.0900
2024-04-24T01:02:03.421Z,24.0900
2024-04-24T01:02:14.559Z,24.0900
2024-04-24T01:02:25.622Z,24.1000
2024-04-24T01:02:36.711Z,24.1100
2024-04-24T01:02:47.906Z,24.1100
2024-04-24T01:02:58.982Z,24.1100
2024-04-24T01:03:10.056Z,24.1100
2024-04-24T01:03:21.244Z,24.1100
2024-04-24T01:03:32.415Z,24.1100
2024-04-24T01:03:43.475Z,24.1100
2024-04-24T01:03:54.527Z,24.1100
2024-04-24T01:04:05.690Z,24.1100
2024-04-24T01:04:16.761Z,24.1000
2024-04-24T01:04:27.821Z,24.1000
2024-04-24T01:04:38.890Z,24.1000
2024-04-24T01:04:49.989Z,24.0900
2024-04-24T01:05:01.083Z,24.0900
2024-04-24T01:05:12.160Z,24.0900
2024-04-24T01:05:23.329Z,24.0900
2024-04-24T01:05:34.467Z,24.0900
2024-04-24T01:05:45.499Z,24.0900
2024-04-24T01:05:56.526Z,24.1000
2024-04-24T01:06:07.577Z,24.1000
2024-04-24T01:06:18.603Z,24.1100
2024-04-24T01:06:29.667Z,24.1000
2024-04-24T01:06:40.740Z,24.1000
2024-04-24T01:06:51.955Z,24.1000
2024-04-24T01:07:03.098Z,24.1000
2024-04-24T01:07:14.126Z,24.1000
2024-04-24T01:07:25.173Z,24.1100
2024-04-24T01:07:36.222Z,24.1100
2024-04-24T01:07:47.278Z,24.1100
2024-04-24T01:07:58.327Z,24.1100
2024-04-24T01:08:09.425Z,24.1100
2024-04-24T01:08:20.552Z,24.1000
2024-04-24T01:08:31.634Z,24.1000
2024-04-24T01:08:42.683Z,24.1000
2024-04-24T01:08:53.737Z,24.1100
2024-04-24T01:09:04.785Z,24.1100
2024-04-24T01:09:15.820Z,24.1100
2024-04-24T01:09:26.884Z,24.1200
2024-04-24T01:09:37.908Z,24.1200
2024-04-24T01:09:48.971Z,24.1200
2024-04-24T01:10:00.036Z,24.1200
2024-04-24T01:10:11.089Z,24.1200
2024-04-24T01:10:22.157Z,24.1200
2024-04-24T01:10:33.201Z,24.1200
2024-04-24T01:10:44.276Z,24.1200
2024-04-24T01:10:55.374Z,24.1200
2024-04-24T01:11:06.527Z,24.1100
2024-04-24T01:11:17.751Z,24.1100
2024-04-24T01:11:28.920Z,24.1000
2024-04-24T01:11:40.152Z,24.1000
2024-04-24T01:11:51.368Z,24.0900
2024-04-24T01:12:02.730Z,24.0900
2024-04-24T01:12:14.139Z,24.0900
2024-04-24T01:12:25.196Z,24.0800
2024-04-24T01:12:36.262Z,24.0800
2024-04-24T01:12:47.291Z,24.0800
2024-04-24T01:12:58.338Z,24.0800
2024-04-24T01:13:09.387Z,24.0900
2024-04-24T01:13:20.422Z,24.0900
2024-04-24T01:13:31.476Z,24.0800
2024-04-24T01:13:42.512Z,24.0800
2024-04-24T01:13:53.572Z,24.0900
2024-04-24T01:14:04.611Z,24.0900
2024-04-24T01:14:15.812Z,24.0900
2024-04-24T01:14:26.955Z,24.0900
2024-04-24T01:14:38.093Z,24.1000
2024-04-24T01:14:49.130Z,24.1000
2024-04-24T01:15:00.311Z,24.1100
2024-04-24T01:15:11.368Z,24.1000
2024-04-24T01:15:22.434Z,24.1000
2024-04-24T01:15:33.449Z,24.1000
2024-04-24T01:15:44.492Z,24.1000
2024-04-24T01:15:55.540Z,24.1000
2024-04-24T01:16:06.565Z,24.1000
2024-04-24T01:16:17.612Z,24.1000
2024-04-24T01:16:28.665Z,24.1000
2024-04-24T01:16:39.750Z,24.1000
2024-04-24T01:16:50.853Z,24.1000
2024-04-24T01:17:01.968Z,24.1000
2024-04-24T01:17:13.053Z,24.1000
2024-04-24T01:17:24.220Z,24.0900
2024-04-24T01:17:35.476Z,24.0900
2024-04-24T01:17:46.865Z,24.0900
2024-04-24T01:17:58.214Z,24.0800
2024-04-24T01:18:09.785Z,24.0800
2024-04-24T01:18:21.025Z,24.0800
2024-04-24T01:18:32.429Z,24.0800
2024-04-24T01:18:43.527Z,24.0800
2024-04-24T01:18:54.630Z,24.0800
2024-04-24T01:19:05.659Z,24.0800
2024-04-24T01:19:16.724Z,24.0900
2024-04-24T01:19:27.801Z,24.0900
2024-04-24T01:19:38.885Z,24.1000
2024-04-24T01:19:50.057Z,24.1000
2024-04-24T01:20:01.227Z,24.1100
2024-04-24T01:20:12.347Z,24.1100
2024-04-24T01:20:23.521Z,24.1100
2024-04-24T01:20:34.667Z,24.1100
2024-04-24T01:20:45.705Z,24.1200
2024-04-24T01:20:56.716Z,24.1200
2024-04-24T01:21:07.755Z,24.1200
2024-04-24T01:21:18.796Z,24.1200
2024-04-24T01:21:29.870Z,24.1300
2024-04-24T01:21:40.924Z,24.1400
2024-04-24T01:21:53.007Z,24.1400
2024-04-24T01:22:04.150Z,24.1400
2024-04-24T01:22:15.197Z,24.1300
2024-04-24T01:22:26.261Z,24.1300
2024-04-24T01:22:37.310Z,24.1300
2024-04-24T01:22:48.400Z,24.1300
2024-04-24T01:22:59.484Z,24.1400
2024-04-24T01:23:10.563Z,24.1400
2024-04-24T01:23:21.700Z,24.1400
2024-04-24T01:23:32.788Z,24.1300
2024-04-24T01:23:43.839Z,24.1400
2024-04-24T01:23:54.879Z,24.1400
2024-04-24T01:24:05.910Z,24.1400
2024-04-24T01:24:16.979Z,24.1400
2024-04-24T01:24:28.052Z,24.1400
2024-04-24T01:24:39.102Z,24.1400
2024-04-24T01:24:50.137Z,24.1400
2024-04-24T01:25:01.185Z,24.1300
2024-04-24T01:25:12.222Z,24.1300
2024-04-24T01:25:23.256Z,24.1300
2024-04-24T01:25:34.292Z,24.1300
2024-04-24T01:25:45.345Z,24.1200
2024-04-24T01:25:56.379Z,24.1200
2024-04-24T01:26:07.439Z,24.1200
2024-04-24T01:26:18.521Z,24.1200
2024-04-24T01:26:29.517Z,24.1200
2024-04-24T01:26:40.562Z,24.1200
2024-04-24T01:26:51.620Z,24.1300
2024-04-24T01:27:02.673Z,24.1300
2024-04-24T01:27:13.725Z,24.1200
2024-04-24T01:27:24.762Z,24.1200
2024-04-24T01:27:35.856Z,24.1200
2024-04-24T01:27:46.880Z,24.1200
2024-04-24T01:27:57.935Z,24.1200
2024-04-24T01:28:08.983Z,24.1100
2024-04-24T01:28:20.026Z,24.1100
2024-04-24T01:28:31.085Z,24.1100
2024-04-24T01:28:42.122Z,24.1100
2024-04-24T01:28:53.169Z,24.1100
2024-04-24T01:29:04.248Z,24.1000
2024-04-24T01:29:15.497Z,24.1000
2024-04-24T01:29:26.600Z,24.1000
2024-04-24T01:29:37.678Z,24.1000
2024-04-24T01:29:48.731Z,24.1000
2024-04-24T01:29:59.774Z,24.1000
2024-04-24T01:30:10.811Z,24.1100
2024-04-24T01:30:21.848Z,24.1100
2024-04-24T01:30:32.931Z,24.1100
2024-04-24T01:30:43.950Z,24.1000
2024-04-24T01:30:55.015Z,24.1000
2024-04-24T01:31:06.224Z,24.1000
2024-04-24T01:31:17.253Z,24.1000
2024-04-24T01:31:28.312Z,24.1000
2024-04-24T01:31:39.398Z,24.0900
2024-04-24T01:31:50.478Z,24.1000
2024-04-24T01:32:01.791Z,24.1000
2024-04-24T01:32:13.190Z,24.0900
2024-04-24T01:32:24.333Z,24.0900
2024-04-24T01:32:35.505Z,24.0900
2024-04-24T01:32:46.779Z,24.1000
2024-04-24T01:32:58.195Z,24.1000
2024-04-24T01:33:09.560Z,24.1000
2024-04-24T01:33:20.653Z,24.1000
2024-04-24T01:33:31.716Z,24.1000
2024-04-24T01:33:42.776Z,24.0900
2024-04-24T01:33:53.854Z,24.0900
2024-04-24T01:34:04.886Z,24.0900
2024-04-24T01:34:15.945Z,24.0900
2024-04-24T01:34:26.987Z,24.1000
2024-04-24T01:34:38.071Z,24.1000
2024-04-24T01:34:49.147Z,24.1100
2024-04-24T01:35:00.325Z,24.1100
2024-04-24T01:35:11.384Z,24.1000
2024-04-24T01:35:22.512Z,24.1000
2024-04-24T01:35:33.571Z,24.0900
2024-04-24T01:35:44.630Z,24.0900
2024-04-24T01:35:55.696Z,24.0900
2024-04-24T01:36:06.737Z,24.0900
2024-04-24T01:36:17.802Z,24.1000
2024-04-24T01:36:28.839Z,24.1000
2024-04-24T01:36:39.898Z,24.1100
2024-04-24T01:36:50.968Z,24.1100
2024-04-24T01:37:02.030Z,24.1100
2024-04-24T01:37:13.058Z,24.1000
2024-04-24T01:37:24.103Z,24.0900
2024-04-24T01:37:35.148Z,24.0900
2024-04-24T01:37:46.243Z,24.0900
2024-04-24T01:37:57.268Z,24.1000
2024-04-24T01:38:08.343Z,24.1100
2024-04-24T01:38:19.435Z,24.1100
2024-04-24T01:38:30.450Z,24.1200
2024-04-24T01:38:41.508Z,24.1200
2024-04-24T01:38:52.778Z,24.1200
2024-04-24T01:39:03.821Z,24.1200
2024-04-24T01:39:14.845Z,24.1100
2024-04-24T01:39:25.901Z,24.1100
2024-04-24T01:39:36.955Z,24.1100
2024-04-24T01:39:48.026Z,24.1100
2024-04-24T01:39:59.076Z,24.1100
2024-04-24T01:40:10.125Z,24.1100
2024-04-24T01:40:21.161Z,24.1100
2024-04-24T01:40:32.218Z,24.1100
2024-04-24T01:40:43.240Z,24.1100
2024-04-24T01:40:54.340Z,24.1100
2024-04-24T01:41:05.398Z,24.1200
2024-04-24T01:41:16.474Z,24.1200
2024-04-24T01:41:27.495Z,24.1200
2024-04-24T01:41:38.532Z,24.1200
2024-04-24T01:41:49.567Z,24.1300
2024-04-24T01:42:00.601Z,24.1300
2024-04-24T01:42:11.657Z,24.1300
2024-04-24T01:42:22.698Z,24.1300
2024-04-24T01:42:33.766Z,24.1300
2024-04-24T01:42:44.790Z,24.1300
2024-04-24T01:42:55.830Z,24.1200
2024-04-24T01:43:06.900Z,24.1200
2024-04-24T01:43:17.955Z,24.1100
2024-04-24T01:43:29.012Z,24.1100
2024-04-24T01:43:40.052Z,24.1100
2024-04-24T01:43:51.140Z,24.1000
2024-04-24T01:44:02.248Z,24.1000
2024-04-24T01:44:13.332Z,24.1000
2024-04-24T01:44:24.461Z,24.1000
2024-04-24T01:44:35.486Z,24.1100
2024-04-24T01:44:46.558Z,24.1100
2024-04-24T01:44:57.641Z,24.1100
2024-04-24T01:45:08.693Z,24.1100
2024-04-24T01:45:19.736Z,24.1000
2024-04-24T01:45:30.848Z,24.1000
2024-04-24T01:45:41.879Z,24.1000
2024-04-24T01:45:52.928Z,24.0900
2024-04-24T01:46:03.982Z,24.1000
2024-04-24T01:46:15.018Z,24.1000
2024-04-24T01:46:26.025Z,24.1000
2024-04-24T01:46:37.066Z,24.0900
2024-04-24T01:46:48.160Z,24.0900
2024-04-24T01:46:59.214Z,24.0900
2024-04-24T01:47:10.383Z,24.0900
2024-04-24T01:47:21.459Z,24.0900
2024-04-24T01:47:32.592Z,24.1000
2024-04-24T01:47:43.774Z,24.1000
2024-04-24T01:47:54.962Z,24.1100
2024-04-24T01:48:06.122Z,24.1100
2024-04-24T01:48:17.221Z,24.1200
2024-04-24T01:48:28.465Z,24.1200
2024-04-24T01:48:39.678Z,24.1200
2024-04-24T01:48:50.785Z,24.1200
2024-04-24T01:49:01.797Z,24.1200
2024-04-24T01:49:12.836Z,24.1200
2024-04-24T01:49:23.892Z,24.1200
2024-04-24T01:49:34.937Z,24.1100
2024-04-24T01:49:46.022Z,24.1100
2024-04-24T01:49:57.068Z,24.1100
2024-04-24T01:50:08.202Z,24.1100
2024-04-24T01:50:19.342Z,24.1100
2024-04-24T01:50:30.800Z,24.1100
2024-04-24T01:50:41.844Z,24.1000
2024-04-24T01:50:52.890Z,24.1000
2024-04-24T01:51:03.928Z,24.1000
2024-04-24T01:51:14.984Z,24.1000
2024-04-24T01:51:26.016Z,24.1000
2024-04-24T01:51:37.061Z,24.1100
2024-04-24T01:51:48.111Z,24.1100
2024-04-24T01:51:59.138Z,24.1100
2024-04-24T01:52:10.191Z,24.1100
2024-04-24T01:52:21.249Z,24.1100
2024-04-24T01:52:32.301Z,24.1100
2024-04-24T01:52:43.360Z,24.1100
2024-04-24T01:52:54.427Z,24.1100
2024-04-24T01:53:05.489Z,24.1100
2024-04-24T01:53:16.576Z,24.1100
2024-04-24T01:53:27.690Z,24.1100
2024-04-24T01:53:38.760Z,24.1100
2024-04-24T01:53:49.849Z,24.1100
2024-04-24T01:54:00.891Z,24.1000
2024-04-24T01:54:11.911Z,24.1000
2024-04-24T01:54:22.958Z,24.1000
2024-04-24T01:54:33.992Z,24.1100
2024-04-24T01:54:45.043Z,24.1100
2024-04-24T01:54:56.089Z,24.1200
2024-04-24T01:55:07.135Z,24.1200
2024-04-24T01:55:18.184Z,24.1200
2024-04-24T01:55:29.229Z,24.1100
2024-04-24T01:55:40.295Z,24.1100
2024-04-24T01:55:51.355Z,24.1100
2024-04-24T01:56:02.479Z,24.1000
2024-04-24T01:56:13.689Z,24.1000
2024-04-24T01:56:24.916Z,24.1000
2024-04-24T01:56:35.986Z,24.1000
2024-04-24T01:56:47.020Z,24.1000
2024-04-24T01:56:58.072Z,24.1000
2024-04-24T01:57:09.121Z,24.1100
2024-04-24T01:57:20.182Z,24.1100
2024-04-24T01:57:31.223Z,24.1100
2024-04-24T01:57:42.281Z,24.1100
2024-04-24T01:57:53.300Z,24.1100
2024-04-24T01:58:04.355Z,24.1100
2024-04-24T01:58:15.444Z,24.1100
2024-04-24T01:58:26.477Z,24.1100
2024-04-24T01:58:37.537Z,24.1200
2024-04-24T01:58:48.580Z,24.1200
2024-04-24T01:58:59.646Z,24.1100
2024-04-24T01:59:10.727Z,24.1100
2024-04-24T01:59:21.824Z,24.1200
2024-04-24T01:59:32.839Z,24.1100
2024-04-24T01:59:43.876Z,24.1100
2024-04-24T01:59:54.902Z,24.1100
2024-04-24T02:00:05.939Z,24.1100
2024-04-24T02:00:17.006Z,24.1100
2024-04-24T02:00:28.056Z,24.1100
2024-04-24T02:00:39.096Z,24.1000
2024-04-24T02:00:50.189Z,24.1000
2024-04-24T02:01:01.278Z,24.1000
2024-04-24T02:01:12.391Z,24.1000
2024-04-24T02:01:23.415Z,24.1000
2024-04-24T02:01:34.439Z,24.1000
2024-04-24T02:01:45.503Z,24.1000
2024-04-24T02:01:56.580Z,24.1000
2024-04-24T02:02:07.657Z,24.1100
2024-04-24T02:02:18.787Z,24.1100
2024-04-24T02:02:30.102Z,24.1100
2024-04-24T02:02:41.191Z,24.1100
2024-04-24T02:02:52.227Z,24.1100
2024-04-24T02:03:03.301Z,24.1100
2024-04-24T02:03:14.359Z,24.1200
2024-04-24T02:03:25.435Z,24.1200
2024-04-24T02:03:36.492Z,24.1300
2024-04-24T02:03:47.553Z,24.1300
2024-04-24T02:03:58.634Z,24.1300
2024-04-24T02:04:09.780Z,24.1300
2024-04-24T02:04:20.896Z,24.1300
2024-04-24T02:04:31.932Z,24.1300
2024-04-24T02:04:42.962Z,24.1300
2024-04-24T02:04:54.050Z,24.1300
2024-04-24T02:05:05.123Z,24.1300
2024-04-24T02:05:16.288Z,24.1200
2024-04-24T02:05:27.416Z,24.1200
2024-04-24T02:05:38.478Z,24.1200
2024-04-24T02:05:49.520Z,24.1100
2024-04-24T02:06:00.575Z,24.1100
2024-04-24T02:06:11.635Z,24.1100
2024-04-24T02:06:22.668Z,24.1100
2024-04-24T02:06:33.722Z,24.1000
2024-04-24T02:06:44.781Z,24.1100
2024-04-24T02:06:55.807Z,24.1100
2024-04-24T02:07:06.842Z,24.1100
2024-04-24T02:07:17.903Z,24.1100
2024-04-24T02:07:28.967Z,24.1200
2024-04-24T02:07:40.020Z,24.1100
2024-04-24T02:07:51.063Z,24.1100
2024-04-24T02:08:02.123Z,24.1100
2024-04-24T02:08:13.211Z,24.1100
2024-04-24T02:08:24.292Z,24.1100
2024-04-24T02:08:35.340Z,24.1100
2024-04-24T02:08:46.364Z,24.1100
2024-04-24T02:08:57.394Z,24.1100
2024-04-24T02:09:08.437Z,24.1100
2024-04-24T02:09:19.497Z,24.1100
2024-04-24T02:09:30.542Z,24.1000
2024-04-24T02:09:41.591Z,24.1000
2024-04-24T02:09:52.647Z,24.1000
2024-04-24T02:10:03.722Z,24.1000
2024-04-24T02:10:14.794Z,24.1000
2024-04-24T02:10:25.847Z,24.1000
2024-04-24T02:10:36.910Z,24.1100
2024-04-24T02:10:48.002Z,24.1100
2024-04-24T02:10:59.073Z,24.1100
2024-04-24T02:11:10.175Z,24.1200
2024-04-24T02:11:21.413Z,24.1200
2024-04-24T02:11:35.923Z,24.1200
2024-04-24T02:11:53.810Z,24.1200
2024-04-24T02:12:10.511Z,24.1000
2024-04-24T02:12:21.509Z,24.0800
2024-04-24T02:12:32.703Z,24.0700
2024-04-24T02:12:43.854Z,24.0700
2024-04-24T02:12:54.960Z,24.0800
2024-04-24T02:13:05.997Z,24.0800
2024-04-24T02:13:17.032Z,24.0900
2024-04-24T02:13:28.092Z,24.0900
2024-04-24T02:13:39.169Z,24.0900
2024-04-24T02:13:50.233Z,24.0900
2024-04-24T02:14:01.292Z,24.1000
2024-04-24T02:14:12.337Z,24.1000
2024-04-24T02:14:23.477Z,24.1000